Alexander von Humboldt II — DDKK2 — position and weather

sailwx.info

Track history (hours):
 
Tides and Currents Weather Stations Pressure Air Temp Water Temp Dewpoint Dewpoint Depression Visibility Wind Speed Wind Dir Waves Ship Positions

Alexander von Humboldt II

Ship's website: https://www.alex-2.de/en/

Last reported at 2018-Feb-21 21:18 UTC. Time now 2018-Feb-22 15:06 UTC.
Position N 28°09' W 016°19'.

Length 65 m; draft 4.7 m.

Type: Sailing vessel. MMSI: 218768000.

Date/timePositionNaut miles runAvg speedWind from/ knotsBaromVisibWave heightAir tempDewpointWater temp
2018-Feb-21 21:18N 28°09' W 016°19'1 3.2
2018-Feb-21 20:57N 28°10' W 016°18'2 3.8
2018-Feb-21 20:28N 28°12' W 016°17'2 4.8
2018-Feb-21 20:00N 28°14' W 016°16'2 5.0
2018-Feb-21 19:30N 28°16' W 016°15'2 3.8
2018-Feb-21 19:00N 28°18' W 016°15'1 2.1
2018-Feb-21 18:30N 28°19' W 016°14'1 2.5
2018-Feb-21 18:00N 28°21' W 016°14'1 2.1
2018-Feb-21 17:30N 28°22' W 016°15'0 0.5
2018-Feb-21 17:00N 28°22' W 016°15'1 1.4
2018-Feb-21 16:30N 28°22' W 016°15'2 4.0
2018-Feb-21 16:01N 28°24' W 016°15'3 5.7
2018-Feb-21 15:30N 28°27' W 016°15'1 1.3
2018-Feb-21 14:59N 28°28' W 016°15'0 0.0
2018-Feb-21 14:29N 28°28' W 016°15'0 0.0
2018-Feb-21 13:59N 28°28' W 016°15'0 0.0
2018-Feb-21 13:29N 28°28' W 016°15'0 0.0
2018-Feb-21 12:59N 28°28' W 016°15'0 0.0
2018-Feb-21 12:29N 28°28' W 016°15'0 0.0
2018-Feb-21 11:59N 28°28' W 016°15'0 0.0
2018-Feb-21 11:29N 28°28' W 016°15'0 0.0
2018-Feb-21 10:59N 28°28' W 016°15'0 0.0
2018-Feb-21 10:29N 28°28' W 016°15'0 0.0
2018-Feb-21 09:59N 28°28' W 016°15'0 0.0
2018-Feb-21 09:29N 28°28' W 016°15'0 0.0
2018-Feb-21 08:59N 28°28' W 016°15'0 0.0
2018-Feb-21 08:29N 28°28' W 016°15'0 0.0
2018-Feb-21 07:59N 28°28' W 016°15'0 0.0
2018-Feb-21 07:29N 28°28' W 016°15'0 0.0
2018-Feb-21 06:59N 28°28' W 016°15'0 0.0
2018-Feb-21 06:29N 28°28' W 016°15'0 0.0
2018-Feb-21 05:59N 28°28' W 016°15'0 0.0
2018-Feb-21 05:29N 28°28' W 016°15'0 0.0
2018-Feb-21 04:59N 28°28' W 016°15'0 0.0
2018-Feb-21 04:29N 28°28' W 016°15'0 0.0
2018-Feb-21 03:59N 28°28' W 016°15'0 0.0
2018-Feb-21 03:29N 28°28' W 016°15'0 0.0
2018-Feb-21 02:59N 28°28' W 016°15'0 0.0
2018-Feb-21 02:29N 28°28' W 016°15'0 0.0
2018-Feb-21 01:59N 28°28' W 016°15'0 0.0
2018-Feb-21 01:29N 28°28' W 016°15'0 0.0
2018-Feb-21 00:59N 28°28' W 016°15'0 0.0
2018-Feb-21 00:29N 28°28' W 016°15'0 0.0
2018-Feb-20 23:59N 28°28' W 016°15'0 0.0
2018-Feb-20 23:29N 28°28' W 016°15'0 0.0
2018-Feb-20 22:59N 28°28' W 016°15'0 0.0
2018-Feb-20 22:26N 28°28' W 016°15'0 0.0
2018-Feb-20 21:59N 28°28' W 016°15'0 0.0
2018-Feb-20 21:29N 28°28' W 016°15'0 0.0
2018-Feb-20 20:59N 28°28' W 016°15'0 0.0
2018-Feb-20 20:29N 28°28' W 016°15'0 0.0
2018-Feb-20 19:59N 28°28' W 016°15'0 0.0
2018-Feb-20 19:29N 28°28' W 016°15'0 0.0
2018-Feb-20 18:59N 28°28' W 016°15'0 0.0
2018-Feb-20 18:29N 28°28' W 016°15'0 0.0
2018-Feb-20 17:59N 28°28' W 016°15'0 0.0
2018-Feb-20 17:29N 28°28' W 016°15'0 0.0
2018-Feb-20 16:59N 28°28' W 016°15'0 0.0
2018-Feb-20 16:29N 28°28' W 016°15'0 0.0
2018-Feb-20 15:59N 28°28' W 016°15'0 0.0
2018-Feb-20 15:29N 28°28' W 016°15'0 0.0
2018-Feb-20 14:59N 28°28' W 016°15'0 0.0
2018-Feb-20 14:29N 28°28' W 016°15'0 0.0
2018-Feb-20 13:59N 28°28' W 016°15'5 0.2
2018-Feb-19 09:21N 28°31' W 016°10'0 0.0
2018-Feb-19 09:00N 28°31' W 016°10'0 0.0
2018-Feb-19 08:24N 28°31' W 016°10'0 0.0
2018-Feb-19 07:57N 28°31' W 016°10'0 0.1
2018-Feb-19 07:30N 28°31' W 016°10'0 0.1
2018-Feb-19 06:57N 28°31' W 016°10'0 0.1
2018-Feb-19 06:30N 28°31' W 016°10'0 0.0
2018-Feb-19 06:00N 28°31' W 016°10'0 0.0
2018-Feb-19 05:30N 28°31' W 016°10'0 0.0
2018-Feb-19 05:00N 28°31' W 016°10'0 0.0
2018-Feb-19 04:30N 28°31' W 016°10'0 0.0
2018-Feb-19 04:00N 28°31' W 016°10'0 0.0
2018-Feb-19 03:27N 28°31' W 016°10'0 0.0
2018-Feb-19 03:00N 28°31' W 016°10'0 0.0
2018-Feb-19 02:30N 28°31' W 016°10'0 0.0
2018-Feb-19 02:00N 28°31' W 016°10'0 0.0
2018-Feb-19 01:30N 28°31' W 016°10'0 0.0
2018-Feb-19 01:00N 28°31' W 016°10'0 0.1
2018-Feb-19 00:30N 28°31' W 016°10'0 0.0
2018-Feb-19 00:00N 28°31' W 016°10'0 0.0
2018-Feb-18 23:30N 28°31' W 016°10'0 0.0
2018-Feb-18 23:00N 28°31' W 016°10'0 0.0
2018-Feb-18 22:24N 28°31' W 016°10'0 0.0
2018-Feb-18 22:00N 28°31' W 016°10'0 0.0
2018-Feb-18 21:30N 28°31' W 016°10'0 0.0
2018-Feb-18 21:00N 28°31' W 016°10'0 0.0
2018-Feb-18 20:30N 28°31' W 016°10'0 0.0
2018-Feb-18 20:00N 28°31' W 016°10'0 0.0
2018-Feb-18 19:30N 28°31' W 016°10'0 0.0
2018-Feb-18 19:00N 28°31' W 016°10'0 0.0
2018-Feb-18 18:30N 28°31' W 016°10'0 0.0
2018-Feb-18 18:00N 28°31' W 016°10'0 0.1
2018-Feb-18 17:30N 28°31' W 016°10'0 0.1
2018-Feb-18 17:00N 28°31' W 016°10'0 0.1
2018-Feb-18 16:30N 28°31' W 016°10'0 0.0
2018-Feb-18 16:00N 28°31' W 016°10'0 0.0
2018-Feb-18 15:30N 28°31' W 016°10'0 0.0
2018-Feb-18 15:00N 28°31' W 016°10'0 0.0
2018-Feb-18 14:30N 28°31' W 016°10'0 0.1
2018-Feb-18 14:00N 28°31' W 016°10'0 0.0
2018-Feb-18 13:30N 28°31' W 016°10'1 1.7
2018-Feb-18 13:00N 28°30' W 016°09'3 5.9
2018-Feb-18 12:30N 28°29' W 016°06'1 2.2
2018-Feb-18 12:01N 28°30' W 016°05'1 2.3
2018-Feb-18 11:31N 28°31' W 016°04'1 2.7
2018-Feb-18 11:01N 28°32' W 016°04'2 3.2
2018-Feb-18 10:30N 28°34' W 016°04'2 3.2
2018-Feb-18 10:00N 28°35' W 016°03'  
2018-Feb-13 01:06N 28°52' W 015°36'1 7.1
2018-Feb-13 01:00N 28°51' W 015°35'3 6.6
2018-Feb-13 00:30N 28°49' W 015°32'3 5.9
2018-Feb-12 23:59N 28°47' W 015°30'3 5.6
2018-Feb-12 23:30N 28°44' W 015°29'3 6.3
2018-Feb-12 23:00N 28°41' W 015°28'3 6.2
2018-Feb-12 22:30N 28°38' W 015°27'3 6.1
2018-Feb-12 22:00N 28°35' W 015°25'3 5.9
2018-Feb-12 21:30N 28°33' W 015°24'3 5.7
2018-Feb-12 21:00N 28°30' W 015°23'3 5.7
2018-Feb-12 20:30N 28°27' W 015°22'1 2.6
2018-Feb-12 20:00N 28°26' W 015°22'0 0.9
2018-Feb-12 19:30N 28°26' W 015°21'0 0.8
2018-Feb-12 19:00N 28°26' W 015°21'2 3.6
2018-Feb-12 18:30N 28°24' W 015°20'3 6.5
2018-Feb-12 18:00N 28°21' W 015°20'3 6.4
2018-Feb-12 17:31N 28°18' W 015°20'3 6.5
2018-Feb-12 17:01N 28°14' W 015°20'3 6.6
2018-Feb-12 16:30N 28°11' W 015°20'3 6.4
2018-Feb-12 16:00N 28°09' W 015°22'3 5.7
2018-Feb-12 15:31N 28°08' W 015°25'1 1.6
2018-Feb-12 15:00N 28°08' W 015°25'0 0.0
2018-Feb-12 14:30N 28°08' W 015°25'0 0.0
2018-Feb-12 13:57N 28°08' W 015°25'0 0.0
2018-Feb-12 13:30N 28°08' W 015°25'0 0.0
2018-Feb-12 13:00N 28°08' W 015°25'0 0.0
2018-Feb-12 12:30N 28°08' W 015°25'0 0.0
2018-Feb-12 12:00N 28°08' W 015°25'0 0.0
2018-Feb-12 11:30N 28°08' W 015°25'0 0.0
2018-Feb-12 11:00N 28°08' W 015°25'0 0.0
2018-Feb-12 10:30N 28°08' W 015°25'0 0.0
2018-Feb-12 10:00N 28°08' W 015°25'0 0.0
2018-Feb-12 09:30N 28°08' W 015°25'0 0.0
2018-Feb-12 09:00N 28°08' W 015°25'0 0.0
2018-Feb-12 08:30N 28°08' W 015°25'0 0.0
2018-Feb-12 08:00N 28°08' W 015°25'0 0.0
2018-Feb-12 07:30N 28°08' W 015°25'0 0.0
2018-Feb-12 07:00N 28°08' W 015°25'0 0.0
2018-Feb-12 06:30N 28°08' W 015°25'0 0.0
2018-Feb-12 06:00N 28°08' W 015°25'0 0.0
2018-Feb-12 05:21N 28°08' W 015°25'0 0.0
2018-Feb-12 04:51N 28°08' W 015°25'0 0.0
2018-Feb-12 04:18N 28°08' W 015°25'0 0.0
2018-Feb-12 03:51N 28°08' W 015°25'0 0.0
2018-Feb-12 03:24N 28°08' W 015°25'0 0.0
2018-Feb-12 02:54N 28°08' W 015°25'0 0.0
2018-Feb-12 02:24N 28°08' W 015°25'0 0.0
2018-Feb-12 01:54N 28°08' W 015°25'0 0.0
2018-Feb-12 01:27N 28°08' W 015°25'0 0.0
2018-Feb-12 00:54N 28°08' W 015°25'0 0.0
2018-Feb-12 00:27N 28°08' W 015°25'0 0.0
2018-Feb-11 23:57N 28°08' W 015°25'0 0.0
2018-Feb-11 23:12N 28°08' W 015°25'0 0.0
2018-Feb-11 22:57N 28°08' W 015°25'0 0.0
2018-Feb-11 22:30N 28°08' W 015°25'0 0.0
2018-Feb-11 22:00N 28°08' W 015°25'0 0.0
2018-Feb-11 21:30N 28°08' W 015°25'  
Track history (hours):
 
Tides and Currents Weather Stations Pressure Air Temp Water Temp Dewpoint Dewpoint Depression Visibility Wind Speed Wind Dir Waves Ship Positions

Alexander von Humboldt II

Ship's website: https://www.alex-2.de/en/

Last reported at 2018-Feb-21 21:18 UTC. Time now 2018-Feb-22 15:06 UTC.
Position N 28°09' W 016°19'.

Length 65 m; draft 4.7 m.

Type: Sailing vessel. MMSI: 218768000.

Date/timePositionNaut miles runAvg speedWind from/ knotsBaromVisibWave heightAir tempDewpointWater temp
2018-Feb-21 21:18N 28°09' W 016°19'1 3.2
2018-Feb-21 20:57N 28°10' W 016°18'2 3.8
2018-Feb-21 20:28N 28°12' W 016°17'2 4.8
2018-Feb-21 20:00N 28°14' W 016°16'2 5.0
2018-Feb-21 19:30N 28°16' W 016°15'2 3.8
2018-Feb-21 19:00N 28°18' W 016°15'1 2.1
2018-Feb-21 18:30N 28°19' W 016°14'1 2.5
2018-Feb-21 18:00N 28°21' W 016°14'1 2.1
2018-Feb-21 17:30N 28°22' W 016°15'0 0.5
2018-Feb-21 17:00N 28°22' W 016°15'1 1.4
2018-Feb-21 16:30N 28°22' W 016°15'2 4.0
2018-Feb-21 16:01N 28°24' W 016°15'3 5.7
2018-Feb-21 15:30N 28°27' W 016°15'1 1.3
2018-Feb-21 14:59N 28°28' W 016°15'0 0.0
2018-Feb-21 14:29N 28°28' W 016°15'0 0.0
2018-Feb-21 13:59N 28°28' W 016°15'0 0.0
2018-Feb-21 13:29N 28°28' W 016°15'0 0.0
2018-Feb-21 12:59N 28°28' W 016°15'0 0.0
2018-Feb-21 12:29N 28°28' W 016°15'0 0.0
2018-Feb-21 11:59N 28°28' W 016°15'0 0.0
2018-Feb-21 11:29N 28°28' W 016°15'0 0.0
2018-Feb-21 10:59N 28°28' W 016°15'0 0.0
2018-Feb-21 10:29N 28°28' W 016°15'0 0.0
2018-Feb-21 09:59N 28°28' W 016°15'0 0.0
2018-Feb-21 09:29N 28°28' W 016°15'0 0.0
2018-Feb-21 08:59N 28°28' W 016°15'0 0.0
2018-Feb-21 08:29N 28°28' W 016°15'0 0.0
2018-Feb-21 07:59N 28°28' W 016°15'0 0.0
2018-Feb-21 07:29N 28°28' W 016°15'0 0.0
2018-Feb-21 06:59N 28°28' W 016°15'0 0.0
2018-Feb-21 06:29N 28°28' W 016°15'0 0.0
2018-Feb-21 05:59N 28°28' W 016°15'0 0.0
2018-Feb-21 05:29N 28°28' W 016°15'0 0.0
2018-Feb-21 04:59N 28°28' W 016°15'0 0.0
2018-Feb-21 04:29N 28°28' W 016°15'0 0.0
2018-Feb-21 03:59N 28°28' W 016°15'0 0.0
2018-Feb-21 03:29N 28°28' W 016°15'0 0.0
2018-Feb-21 02:59N 28°28' W 016°15'0 0.0
2018-Feb-21 02:29N 28°28' W 016°15'0 0.0
2018-Feb-21 01:59N 28°28' W 016°15'0 0.0
2018-Feb-21 01:29N 28°28' W 016°15'0 0.0
2018-Feb-21 00:59N 28°28' W 016°15'0 0.0
2018-Feb-21 00:29N 28°28' W 016°15'0 0.0
2018-Feb-20 23:59N 28°28' W 016°15'0 0.0
2018-Feb-20 23:29N 28°28' W 016°15'0 0.0
2018-Feb-20 22:59N 28°28' W 016°15'0 0.0
2018-Feb-20 22:26N 28°28' W 016°15'0 0.0
2018-Feb-20 21:59N 28°28' W 016°15'0 0.0
2018-Feb-20 21:29N 28°28' W 016°15'0 0.0
2018-Feb-20 20:59N 28°28' W 016°15'0 0.0
2018-Feb-20 20:29N 28°28' W 016°15'0 0.0
2018-Feb-20 19:59N 28°28' W 016°15'0 0.0
2018-Feb-20 19:29N 28°28' W 016°15'0 0.0
2018-Feb-20 18:59N 28°28' W 016°15'0 0.0
2018-Feb-20 18:29N 28°28' W 016°15'0 0.0
2018-Feb-20 17:59N 28°28' W 016°15'0 0.0
2018-Feb-20 17:29N 28°28' W 016°15'0 0.0
2018-Feb-20 16:59N 28°28' W 016°15'0 0.0
2018-Feb-20 16:29N 28°28' W 016°15'0 0.0
2018-Feb-20 15:59N 28°28' W 016°15'0 0.0
2018-Feb-20 15:29N 28°28' W 016°15'0 0.0
2018-Feb-20 14:59N 28°28' W 016°15'0 0.0
2018-Feb-20 14:29N 28°28' W 016°15'0 0.0
2018-Feb-20 13:59N 28°28' W 016°15'5 0.2
2018-Feb-19 09:21N 28°31' W 016°10'0 0.0
2018-Feb-19 09:00N 28°31' W 016°10'0 0.0
2018-Feb-19 08:24N 28°31' W 016°10'0 0.0
2018-Feb-19 07:57N 28°31' W 016°10'0 0.1
2018-Feb-19 07:30N 28°31' W 016°10'0 0.1
2018-Feb-19 06:57N 28°31' W 016°10'0 0.1
2018-Feb-19 06:30N 28°31' W 016°10'0 0.0
2018-Feb-19 06:00N 28°31' W 016°10'0 0.0
2018-Feb-19 05:30N 28°31' W 016°10'0 0.0
2018-Feb-19 05:00N 28°31' W 016°10'0 0.0
2018-Feb-19 04:30N 28°31' W 016°10'0 0.0
2018-Feb-19 04:00N 28°31' W 016°10'0 0.0
2018-Feb-19 03:27N 28°31' W 016°10'0 0.0
2018-Feb-19 03:00N 28°31' W 016°10'0 0.0
2018-Feb-19 02:30N 28°31' W 016°10'0 0.0
2018-Feb-19 02:00N 28°31' W 016°10'0 0.0
2018-Feb-19 01:30N 28°31' W 016°10'0 0.0
2018-Feb-19 01:00N 28°31' W 016°10'0 0.1
2018-Feb-19 00:30N 28°31' W 016°10'0 0.0
2018-Feb-19 00:00N 28°31' W 016°10'0 0.0
2018-Feb-18 23:30N 28°31' W 016°10'0 0.0
2018-Feb-18 23:00N 28°31' W 016°10'0 0.0
2018-Feb-18 22:24N 28°31' W 016°10'0 0.0
2018-Feb-18 22:00N 28°31' W 016°10'0 0.0
2018-Feb-18 21:30N 28°31' W 016°10'0 0.0
2018-Feb-18 21:00N 28°31' W 016°10'0 0.0
2018-Feb-18 20:30N 28°31' W 016°10'0 0.0
2018-Feb-18 20:00N 28°31' W 016°10'0 0.0
2018-Feb-18 19:30N 28°31' W 016°10'0 0.0
2018-Feb-18 19:00N 28°31' W 016°10'0 0.0
2018-Feb-18 18:30N 28°31' W 016°10'0 0.0
2018-Feb-18 18:00N 28°31' W 016°10'0 0.1
2018-Feb-18 17:30N 28°31' W 016°10'0 0.1
2018-Feb-18 17:00N 28°31' W 016°10'0 0.1
2018-Feb-18 16:30N 28°31' W 016°10'0 0.0
2018-Feb-18 16:00N 28°31' W 016°10'0 0.0
2018-Feb-18 15:30N 28°31' W 016°10'0 0.0
2018-Feb-18 15:00N 28°31' W 016°10'0 0.0
2018-Feb-18 14:30N 28°31' W 016°10'0 0.1
2018-Feb-18 14:00N 28°31' W 016°10'0 0.0
2018-Feb-18 13:30N 28°31' W 016°10'1 1.7
2018-Feb-18 13:00N 28°30' W 016°09'3 5.9
2018-Feb-18 12:30N 28°29' W 016°06'1 2.2
2018-Feb-18 12:01N 28°30' W 016°05'1 2.3
2018-Feb-18 11:31N 28°31' W 016°04'1 2.7
2018-Feb-18 11:01N 28°32' W 016°04'2 3.2
2018-Feb-18 10:30N 28°34' W 016°04'2 3.2
2018-Feb-18 10:00N 28°35' W 016°03'  
2018-Feb-13 01:06N 28°52' W 015°36'1 7.1
2018-Feb-13 01:00N 28°51' W 015°35'3 6.6
2018-Feb-13 00:30N 28°49' W 015°32'3 5.9
2018-Feb-12 23:59N 28°47' W 015°30'3 5.6
2018-Feb-12 23:30N 28°44' W 015°29'3 6.3
2018-Feb-12 23:00N 28°41' W 015°28'3 6.2
2018-Feb-12 22:30N 28°38' W 015°27'3 6.1
2018-Feb-12 22:00N 28°35' W 015°25'3 5.9
2018-Feb-12 21:30N 28°33' W 015°24'3 5.7
2018-Feb-12 21:00N 28°30' W 015°23'3 5.7
2018-Feb-12 20:30N 28°27' W 015°22'1 2.6
2018-Feb-12 20:00N 28°26' W 015°22'0 0.9
2018-Feb-12 19:30N 28°26' W 015°21'0 0.8
2018-Feb-12 19:00N 28°26' W 015°21'2 3.6
2018-Feb-12 18:30N 28°24' W 015°20'3 6.5
2018-Feb-12 18:00N 28°21' W 015°20'3 6.4
2018-Feb-12 17:31N 28°18' W 015°20'3 6.5
2018-Feb-12 17:01N 28°14' W 015°20'3 6.6
2018-Feb-12 16:30N 28°11' W 015°20'3 6.4
2018-Feb-12 16:00N 28°09' W 015°22'3 5.7
2018-Feb-12 15:31N 28°08' W 015°25'1 1.6
2018-Feb-12 15:00N 28°08' W 015°25'0 0.0
2018-Feb-12 14:30N 28°08' W 015°25'0 0.0
2018-Feb-12 13:57N 28°08' W 015°25'0 0.0
2018-Feb-12 13:30N 28°08' W 015°25'0 0.0
2018-Feb-12 13:00N 28°08' W 015°25'0 0.0
2018-Feb-12 12:30N 28°08' W 015°25'0 0.0
2018-Feb-12 12:00N 28°08' W 015°25'0 0.0
2018-Feb-12 11:30N 28°08' W 015°25'0 0.0
2018-Feb-12 11:00N 28°08' W 015°25'0 0.0
2018-Feb-12 10:30N 28°08' W 015°25'0 0.0
2018-Feb-12 10:00N 28°08' W 015°25'0 0.0
2018-Feb-12 09:30N 28°08' W 015°25'0 0.0
2018-Feb-12 09:00N 28°08' W 015°25'0 0.0
2018-Feb-12 08:30N 28°08' W 015°25'0 0.0
2018-Feb-12 08:00N 28°08' W 015°25'0 0.0
2018-Feb-12 07:30N 28°08' W 015°25'0 0.0
2018-Feb-12 07:00N 28°08' W 015°25'0 0.0
2018-Feb-12 06:30N 28°08' W 015°25'0 0.0
2018-Feb-12 06:00N 28°08' W 015°25'0 0.0
2018-Feb-12 05:21N 28°08' W 015°25'0 0.0
2018-Feb-12 04:51N 28°08' W 015°25'0 0.0
2018-Feb-12 04:18N 28°08' W 015°25'0 0.0
2018-Feb-12 03:51N 28°08' W 015°25'0 0.0
2018-Feb-12 03:24N 28°08' W 015°25'0 0.0
2018-Feb-12 02:54N 28°08' W 015°25'0 0.0
2018-Feb-12 02:24N 28°08' W 015°25'0 0.0
2018-Feb-12 01:54N 28°08' W 015°25'0 0.0
2018-Feb-12 01:27N 28°08' W 015°25'0 0.0
2018-Feb-12 00:54N 28°08' W 015°25'0 0.0
2018-Feb-12 00:27N 28°08' W 015°25'0 0.0
2018-Feb-11 23:57N 28°08' W 015°25'0 0.0
2018-Feb-11 23:12N 28°08' W 015°25'0 0.0
2018-Feb-11 22:57N 28°08' W 015°25'0 0.0
2018-Feb-11 22:30N 28°08' W 015°25'0 0.0
2018-Feb-11 22:00N 28°08' W 015°25'0 0.0
2018-Feb-11 21:30N 28°08' W 015°25'  

Dump ship's entire track history